This is the latest recevied weather packets stored in our database for station/object KD5GAT-51. If no packets are shown the sender has not sent any weather packets the latest 10 day(s).
| Time | Temp. | Humidity | Pressure | Rain* | Wind** | Luminosity | Snow |
|---|---|---|---|---|---|---|---|
| 1777835438 | 27.78° C | 31% | 1023.2 hPa | - | - | - | - |
| 1777834538 | 27.22° C | 29% | 1023.2 hPa | - | - | - | - |
| 1777833637 | 27.78° C | 32% | 1023.7 hPa | - | - | - | - |
| 1777832737 | 27.78° C | 34% | 1023.9 hPa | - | - | - | - |
| 1777831837 | 27.22° C | 33% | 1024.1 hPa | - | - | - | - |
| 1777830937 | 27.78° C | 34% | 1024.6 hPa | - | - | - | - |
| 1777830037 | 27.22° C | 34% | 1024.9 hPa | - | - | - | - |
| 1777829137 | 27.78° C | 36% | 1025 hPa | - | - | - | - |
| 1777828236 | 27.22° C | 38% | 1025.3 hPa | - | - | - | - |
| 1777827336 | 26.67° C | 38% | 1025.6 hPa | - | - | - | - |
| 1777826436 | 26.67° C | 39% | 1025.5 hPa | - | - | - | - |
| 1777825536 | 26.11° C | 38% | 1025.8 hPa | - | - | - | - |
| 1777824636 | 25.56° C | 39% | 1025.8 hPa | - | - | - | - |
| 1777823736 | 26.11° C | 39% | 1025.9 hPa | - | - | - | - |
| 1777822835 | 26.11° C | 40% | 1026 hPa | - | - | - | - |
| 1777821935 | 25° C | 44% | 1025.9 hPa | - | - | - | - |
| 1777821035 | 24.44° C | 47% | 1026 hPa | - | - | - | - |
| 1777820135 | 23.89° C | 48% | 1025.9 hPa | - | - | - | - |
| 1777819235 | 23.33° C | 50% | 1025.7 hPa | - | - | - | - |
| 1777818335 | 22.22° C | 54% | 1025.8 hPa | - | - | - | - |
| 1777817435 | 21.67° C | 62% | 1025.6 hPa | - | - | - | - |
| 1777816534 | 20° C | 81% | 1025.5 hPa | - | - | - | - |
| 1777815634 | 18.33° C | 94% | 1025.3 hPa | - | - | - | - |
| 1777814734 | 16.11° C | 100% | 1025.2 hPa | - | - | - | - |
| 1777813834 | 14.44° C | 100% | 1025.1 hPa | - | - | - | - |
* Rain since midnight (hover to see other rain measurements)
** Current wind speed in m/s (hover to see current wind gust speed)